sensor_id;sensor_type;location;lat;lon;timestamp;P1;durP1;ratioP1;P2;durP2;ratioP2
47760;SDS011;33524;55.434;38.520;2023-07-24T00:02:26;13.00;;;5.60;;
47760;SDS011;33524;55.434;38.520;2023-07-24T00:04:54;9.50;;;5.82;;
47760;SDS011;33524;55.434;38.520;2023-07-24T00:07:22;6.95;;;6.25;;
47760;SDS011;33524;55.434;38.520;2023-07-24T00:09:50;7.07;;;5.72;;
47760;SDS011;33524;55.434;38.520;2023-07-24T00:12:19;8.55;;;5.50;;
47760;SDS011;33524;55.434;38.520;2023-07-24T00:14:46;8.82;;;5.37;;
47760;SDS011;33524;55.434;38.520;2023-07-24T00:17:14;11.23;;;5.65;;
47760;SDS011;33524;55.434;38.520;2023-07-24T00:19:43;8.50;;;5.50;;
47760;SDS011;33524;55.434;38.520;2023-07-24T00:22:11;6.43;;;4.87;;
47760;SDS011;33524;55.434;38.520;2023-07-24T00:24:39;7.57;;;5.72;;
47760;SDS011;33524;55.434;38.520;2023-07-24T00:27:07;8.27;;;5.53;;
47760;SDS011;33524;55.434;38.520;2023-07-24T00:29:35;6.37;;;5.05;;
47760;SDS011;33524;55.434;38.520;2023-07-24T00:32:04;8.82;;;5.53;;
47760;SDS011;33524;55.434;38.520;2023-07-24T00:34:34;8.48;;;6.15;;
47760;SDS011;33524;55.434;38.520;2023-07-24T00:37:02;7.53;;;6.00;;
47760;SDS011;33524;55.434;38.520;2023-07-24T00:39:30;7.05;;;5.75;;
47760;SDS011;33524;55.434;38.520;2023-07-24T00:41:59;7.62;;;5.97;;
47760;SDS011;33524;55.434;38.520;2023-07-24T00:44:27;10.70;;;6.40;;
47760;SDS011;33524;55.434;38.520;2023-07-24T00:46:55;7.35;;;6.12;;
47760;SDS011;33524;55.434;38.520;2023-07-24T00:49:23;8.05;;;4.50;;
47760;SDS011;33524;55.434;38.520;2023-07-24T00:51:51;9.45;;;5.43;;
47760;SDS011;33524;55.434;38.520;2023-07-24T00:54:20;11.38;;;5.93;;
47760;SDS011;33524;55.434;38.520;2023-07-24T00:56:50;8.43;;;6.00;;
47760;SDS011;33524;55.434;38.520;2023-07-24T00:59:20;7.57;;;6.18;;
47760;SDS011;33524;55.434;38.520;2023-07-24T01:01:48;8.50;;;6.07;;
47760;SDS011;33524;55.434;38.520;2023-07-24T01:04:17;8.38;;;6.32;;
47760;SDS011;33524;55.434;38.520;2023-07-24T01:06:46;8.18;;;6.18;;
47760;SDS011;33524;55.434;38.520;2023-07-24T01:09:14;7.12;;;5.57;;
47760;SDS011;33524;55.434;38.520;2023-07-24T01:14:51;11.18;;;6.72;;
47760;SDS011;33524;55.434;38.520;2023-07-24T01:17:26;8.27;;;6.05;;
47760;SDS011;33524;55.434;38.520;2023-07-24T01:19:58;8.45;;;6.62;;
47760;SDS011;33524;55.434;38.520;2023-07-24T01:23:37;11.48;;;6.60;;
47760;SDS011;33524;55.434;38.520;2023-07-24T01:25:56;14.30;;;6.85;;
47760;SDS011;33524;55.434;38.520;2023-07-24T01:28:30;7.75;;;6.87;;
47760;SDS011;33524;55.434;38.520;2023-07-24T01:30:58;9.20;;;6.53;;
47760;SDS011;33524;55.434;38.520;2023-07-24T01:33:26;8.55;;;6.72;;
47760;SDS011;33524;55.434;38.520;2023-07-24T01:35:55;9.25;;;6.00;;
47760;SDS011;33524;55.434;38.520;2023-07-24T01:38:26;8.52;;;6.10;;
47760;SDS011;33524;55.434;38.520;2023-07-24T01:40:55;9.88;;;7.07;;
47760;SDS011;33524;55.434;38.520;2023-07-24T01:43:24;10.00;;;6.50;;
47760;SDS011;33524;55.434;38.520;2023-07-24T01:45:56;9.57;;;6.82;;
47760;SDS011;33524;55.434;38.520;2023-07-24T01:48:24;9.07;;;6.80;;
47760;SDS011;33524;55.434;38.520;2023-07-24T01:50:53;11.90;;;7.03;;
47760;SDS011;33524;55.434;38.520;2023-07-24T01:53:21;10.15;;;7.00;;
47760;SDS011;33524;55.434;38.520;2023-07-24T01:55:49;9.13;;;7.10;;
47760;SDS011;33524;55.434;38.520;2023-07-24T01:58:17;9.18;;;7.15;;
47760;SDS011;33524;55.434;38.520;2023-07-24T02:00:47;9.70;;;7.82;;
47760;SDS011;33524;55.434;38.520;2023-07-24T02:03:14;10.55;;;8.13;;
47760;SDS011;33524;55.434;38.520;2023-07-24T02:05:48;10.10;;;7.68;;
47760;SDS011;33524;55.434;38.520;2023-07-24T02:08:18;9.13;;;6.85;;
47760;SDS011;33524;55.434;38.520;2023-07-24T02:10:48;10.07;;;7.87;;
47760;SDS011;33524;55.434;38.520;2023-07-24T02:13:18;10.82;;;7.72;;
47760;SDS011;33524;55.434;38.520;2023-07-24T02:15:49;11.98;;;8.20;;
47760;SDS011;33524;55.434;38.520;2023-07-24T02:18:18;8.82;;;6.75;;
47760;SDS011;33524;55.434;38.520;2023-07-24T02:20:49;9.57;;;7.85;;
47760;SDS011;33524;55.434;38.520;2023-07-24T02:23:18;8.30;;;7.40;;
47760;SDS011;33524;55.434;38.520;2023-07-24T02:25:46;9.90;;;7.97;;
47760;SDS011;33524;55.434;38.520;2023-07-24T02:28:19;12.00;;;7.43;;
47760;SDS011;33524;55.434;38.520;2023-07-24T02:30:47;10.50;;;7.12;;
47760;SDS011;33524;55.434;38.520;2023-07-24T02:33:15;11.25;;;6.62;;
47760;SDS011;33524;55.434;38.520;2023-07-24T02:35:43;9.68;;;6.53;;
47760;SDS011;33524;55.434;38.520;2023-07-24T02:38:13;8.27;;;6.12;;
47760;SDS011;33524;55.434;38.520;2023-07-24T02:40:41;10.05;;;6.12;;
47760;SDS011;33524;55.434;38.520;2023-07-24T02:43:09;8.05;;;6.50;;
47760;SDS011;33524;55.434;38.520;2023-07-24T02:45:38;8.15;;;6.32;;
47760;SDS011;33524;55.434;38.520;2023-07-24T02:48:06;10.15;;;6.85;;
47760;SDS011;33524;55.434;38.520;2023-07-24T02:50:34;6.95;;;5.82;;
47760;SDS011;33524;55.434;38.520;2023-07-24T02:53:02;7.87;;;5.72;;
47760;SDS011;33524;55.434;38.520;2023-07-24T02:55:31;8.13;;;6.03;;
47760;SDS011;33524;55.434;38.520;2023-07-24T02:57:59;8.43;;;5.47;;
47760;SDS011;33524;55.434;38.520;2023-07-24T03:00:28;8.90;;;5.28;;
47760;SDS011;33524;55.434;38.520;2023-07-24T03:02:56;8.55;;;5.93;;
47760;SDS011;33524;55.434;38.520;2023-07-24T03:05:24;7.05;;;5.32;;
47760;SDS011;33524;55.434;38.520;2023-07-24T03:07:52;10.95;;;6.07;;
47760;SDS011;33524;55.434;38.520;2023-07-24T03:10:20;5.30;;;4.03;;
47760;SDS011;33524;55.434;38.520;2023-07-24T03:12:48;10.10;;;5.47;;
47760;SDS011;33524;55.434;38.520;2023-07-24T03:15:19;7.95;;;5.85;;
47760;SDS011;33524;55.434;38.520;2023-07-24T03:17:47;7.97;;;5.05;;
47760;SDS011;33524;55.434;38.520;2023-07-24T03:20:16;9.43;;;5.35;;
47760;SDS011;33524;55.434;38.520;2023-07-24T03:22:45;8.85;;;5.60;;
47760;SDS011;33524;55.434;38.520;2023-07-24T03:25:13;6.57;;;4.93;;
47760;SDS011;33524;55.434;38.520;2023-07-24T03:27:41;5.62;;;4.20;;
47760;SDS011;33524;55.434;38.520;2023-07-24T03:30:09;8.85;;;5.05;;
47760;SDS011;33524;55.434;38.520;2023-07-24T03:32:41;5.28;;;3.45;;
47760;SDS011;33524;55.434;38.520;2023-07-24T03:35:16;5.78;;;4.30;;
47760;SDS011;33524;55.434;38.520;2023-07-24T03:37:44;5.05;;;4.47;;
47760;SDS011;33524;55.434;38.520;2023-07-24T03:40:12;7.10;;;4.53;;
47760;SDS011;33524;55.434;38.520;2023-07-24T03:42:41;7.68;;;3.47;;
47760;SDS011;33524;55.434;38.520;2023-07-24T03:45:09;6.97;;;4.93;;
47760;SDS011;33524;55.434;38.520;2023-07-24T03:47:37;4.47;;;3.25;;
47760;SDS011;33524;55.434;38.520;2023-07-24T03:50:09;7.17;;;4.33;;
47760;SDS011;33524;55.434;38.520;2023-07-24T03:52:37;5.22;;;3.92;;
47760;SDS011;33524;55.434;38.520;2023-07-24T03:55:05;6.85;;;4.12;;
47760;SDS011;33524;55.434;38.520;2023-07-24T03:57:35;6.00;;;3.87;;
47760;SDS011;33524;55.434;38.520;2023-07-24T04:00:03;5.75;;;2.72;;
47760;SDS011;33524;55.434;38.520;2023-07-24T04:02:38;6.37;;;3.53;;
47760;SDS011;33524;55.434;38.520;2023-07-24T04:05:07;4.30;;;3.30;;
47760;SDS011;33524;55.434;38.520;2023-07-24T04:07:35;7.90;;;3.40;;
47760;SDS011;33524;55.434;38.520;2023-07-24T04:10:04;6.97;;;2.90;;
47760;SDS011;33524;55.434;38.520;2023-07-24T04:12:33;3.50;;;2.15;;
47760;SDS011;33524;55.434;38.520;2023-07-24T04:15:01;4.20;;;3.10;;
47760;SDS011;33524;55.434;38.520;2023-07-24T04:17:29;2.92;;;2.17;;
47760;SDS011;33524;55.434;38.520;2023-07-24T04:19:58;4.03;;;2.30;;
47760;SDS011;33524;55.434;38.520;2023-07-24T04:22:26;4.53;;;2.87;;
47760;SDS011;33524;55.434;38.520;2023-07-24T04:24:53;3.92;;;2.50;;
47760;SDS011;33524;55.434;38.520;2023-07-24T04:27:22;3.83;;;2.50;;
47760;SDS011;33524;55.434;38.520;2023-07-24T04:29:50;4.10;;;2.10;;
47760;SDS011;33524;55.434;38.520;2023-07-24T04:32:17;5.55;;;2.85;;
47760;SDS011;33524;55.434;38.520;2023-07-24T04:34:46;3.45;;;2.58;;
47760;SDS011;33524;55.434;38.520;2023-07-24T04:37:14;6.25;;;2.05;;
47760;SDS011;33524;55.434;38.520;2023-07-24T04:39:42;4.37;;;2.92;;
47760;SDS011;33524;55.434;38.520;2023-07-24T04:42:10;5.82;;;2.60;;
47760;SDS011;33524;55.434;38.520;2023-07-24T04:44:38;3.28;;;2.17;;
47760;SDS011;33524;55.434;38.520;2023-07-24T04:47:06;4.22;;;2.30;;
47760;SDS011;33524;55.434;38.520;2023-07-24T04:49:34;4.85;;;2.17;;
47760;SDS011;33524;55.434;38.520;2023-07-24T04:52:02;6.37;;;2.70;;
47760;SDS011;33524;55.434;38.520;2023-07-24T04:54:30;3.40;;;2.15;;
47760;SDS011;33524;55.434;38.520;2023-07-24T04:56:59;5.90;;;2.40;;
47760;SDS011;33524;55.434;38.520;2023-07-24T04:59:26;3.97;;;2.28;;
47760;SDS011;33524;55.434;38.520;2023-07-24T05:01:54;7.78;;;2.12;;
47760;SDS011;33524;55.434;38.520;2023-07-24T05:04:23;3.58;;;2.08;;
47760;SDS011;33524;55.434;38.520;2023-07-24T05:06:51;2.35;;;1.52;;
47760;SDS011;33524;55.434;38.520;2023-07-24T05:09:19;2.60;;;1.62;;
47760;SDS011;33524;55.434;38.520;2023-07-24T05:11:47;3.15;;;1.85;;
47760;SDS011;33524;55.434;38.520;2023-07-24T05:14:15;2.28;;;1.55;;
47760;SDS011;33524;55.434;38.520;2023-07-24T05:16:43;6.20;;;2.58;;
47760;SDS011;33524;55.434;38.520;2023-07-24T05:19:15;3.78;;;2.08;;
47760;SDS011;33524;55.434;38.520;2023-07-24T05:21:43;2.25;;;1.52;;
47760;SDS011;33524;55.434;38.520;2023-07-24T05:24:10;3.37;;;1.73;;
47760;SDS011;33524;55.434;38.520;2023-07-24T05:26:39;2.12;;;1.62;;
47760;SDS011;33524;55.434;38.520;2023-07-24T05:29:06;3.17;;;1.27;;
47760;SDS011;33524;55.434;38.520;2023-07-24T05:31:34;2.97;;;1.42;;
47760;SDS011;33524;55.434;38.520;2023-07-24T05:34:03;3.90;;;1.50;;
47760;SDS011;33524;55.434;38.520;2023-07-24T05:36:32;2.08;;;1.12;;
47760;SDS011;33524;55.434;38.520;2023-07-24T05:39:00;3.90;;;1.80;;
47760;SDS011;33524;55.434;38.520;2023-07-24T05:41:28;1.87;;;1.37;;
47760;SDS011;33524;55.434;38.520;2023-07-24T05:43:56;2.37;;;1.52;;
47760;SDS011;33524;55.434;38.520;2023-07-24T05:46:24;2.75;;;1.58;;
47760;SDS011;33524;55.434;38.520;2023-07-24T05:48:53;1.92;;;1.23;;
47760;SDS011;33524;55.434;38.520;2023-07-24T05:51:21;2.30;;;1.35;;
47760;SDS011;33524;55.434;38.520;2023-07-24T05:53:49;2.20;;;1.40;;
47760;SDS011;33524;55.434;38.520;2023-07-24T05:56:17;3.20;;;1.65;;
47760;SDS011;33524;55.434;38.520;2023-07-24T05:58:45;3.40;;;1.67;;
47760;SDS011;33524;55.434;38.520;2023-07-24T06:01:13;3.65;;;1.70;;
47760;SDS011;33524;55.434;38.520;2023-07-24T06:03:42;1.62;;;1.15;;
47760;SDS011;33524;55.434;38.520;2023-07-24T06:06:10;6.10;;;1.33;;
47760;SDS011;33524;55.434;38.520;2023-07-24T06:08:38;1.52;;;1.00;;
47760;SDS011;33524;55.434;38.520;2023-07-24T06:11:06;1.58;;;1.10;;
47760;SDS011;33524;55.434;38.520;2023-07-24T06:13:34;2.20;;;1.20;;
47760;SDS011;33524;55.434;38.520;2023-07-24T06:16:02;1.87;;;1.08;;
47760;SDS011;33524;55.434;38.520;2023-07-24T06:18:31;1.80;;;1.30;;
47760;SDS011;33524;55.434;38.520;2023-07-24T06:21:02;2.90;;;1.40;;
47760;SDS011;33524;55.434;38.520;2023-07-24T06:23:31;1.58;;;1.00;;
47760;SDS011;33524;55.434;38.520;2023-07-24T06:25:59;1.67;;;1.10;;
47760;SDS011;33524;55.434;38.520;2023-07-24T06:28:27;2.20;;;1.27;;
47760;SDS011;33524;55.434;38.520;2023-07-24T06:30:56;2.60;;;1.60;;
47760;SDS011;33524;55.434;38.520;2023-07-24T06:33:24;2.37;;;1.10;;
47760;SDS011;33524;55.434;38.520;2023-07-24T06:35:52;2.35;;;1.20;;
47760;SDS011;33524;55.434;38.520;2023-07-24T06:38:20;1.65;;;1.08;;
47760;SDS011;33524;55.434;38.520;2023-07-24T06:40:51;2.28;;;1.10;;
47760;SDS011;33524;55.434;38.520;2023-07-24T06:43:20;2.08;;;1.08;;
47760;SDS011;33524;55.434;38.520;2023-07-24T06:45:48;2.37;;;1.35;;
47760;SDS011;33524;55.434;38.520;2023-07-24T06:48:16;2.30;;;1.02;;
47760;SDS011;33524;55.434;38.520;2023-07-24T06:50:44;2.60;;;1.25;;
47760;SDS011;33524;55.434;38.520;2023-07-24T06:53:12;2.55;;;1.42;;
47760;SDS011;33524;55.434;38.520;2023-07-24T06:55:43;3.47;;;1.10;;
47760;SDS011;33524;55.434;38.520;2023-07-24T06:58:11;2.17;;;1.00;;
47760;SDS011;33524;55.434;38.520;2023-07-24T07:00:39;1.20;;;1.00;;
47760;SDS011;33524;55.434;38.520;2023-07-24T07:03:07;1.55;;;1.10;;
47760;SDS011;33524;55.434;38.520;2023-07-24T07:05:36;2.22;;;1.15;;
47760;SDS011;33524;55.434;38.520;2023-07-24T07:08:04;1.62;;;0.82;;
47760;SDS011;33524;55.434;38.520;2023-07-24T07:10:33;3.08;;;1.10;;
47760;SDS011;33524;55.434;38.520;2023-07-24T07:13:01;5.20;;;1.00;;
47760;SDS011;33524;55.434;38.520;2023-07-24T07:15:29;0.98;;;0.82;;
47760;SDS011;33524;55.434;38.520;2023-07-24T07:17:58;1.12;;;0.98;;
47760;SDS011;33524;55.434;38.520;2023-07-24T07:20:26;1.73;;;1.12;;
47760;SDS011;33524;55.434;38.520;2023-07-24T07:22:54;1.58;;;0.90;;
47760;SDS011;33524;55.434;38.520;2023-07-24T07:25:21;1.42;;;0.75;;
47760;SDS011;33524;55.434;38.520;2023-07-24T07:27:50;1.98;;;1.20;;
47760;SDS011;33524;55.434;38.520;2023-07-24T07:30:18;1.83;;;1.00;;
47760;SDS011;33524;55.434;38.520;2023-07-24T07:32:46;1.75;;;0.93;;
47760;SDS011;33524;55.434;38.520;2023-07-24T07:35:16;2.00;;;1.23;;
47760;SDS011;33524;55.434;38.520;2023-07-24T07:37:44;1.30;;;1.20;;
47760;SDS011;33524;55.434;38.520;2023-07-24T07:40:12;1.50;;;1.00;;
47760;SDS011;33524;55.434;38.520;2023-07-24T07:42:41;2.60;;;1.40;;
47760;SDS011;33524;55.434;38.520;2023-07-24T07:45:12;1.80;;;1.30;;
47760;SDS011;33524;55.434;38.520;2023-07-24T07:47:40;2.85;;;1.35;;
47760;SDS011;33524;55.434;38.520;2023-07-24T07:50:11;1.48;;;1.20;;
47760;SDS011;33524;55.434;38.520;2023-07-24T07:52:40;1.75;;;1.30;;
47760;SDS011;33524;55.434;38.520;2023-07-24T07:55:08;1.48;;;0.95;;
47760;SDS011;33524;55.434;38.520;2023-07-24T07:57:37;1.45;;;1.05;;
47760;SDS011;33524;55.434;38.520;2023-07-24T08:00:05;3.60;;;1.40;;
47760;SDS011;33524;55.434;38.520;2023-07-24T08:02:36;2.33;;;1.17;;
47760;SDS011;33524;55.434;38.520;2023-07-24T08:05:08;3.50;;;1.23;;
47760;SDS011;33524;55.434;38.520;2023-07-24T08:07:47;2.10;;;1.00;;
47760;SDS011;33524;55.434;38.520;2023-07-24T08:10:15;1.95;;;0.70;;
47760;SDS011;33524;55.434;38.520;2023-07-24T08:12:44;2.42;;;1.37;;
47760;SDS011;33524;55.434;38.520;2023-07-24T08:15:12;2.28;;;1.37;;
47760;SDS011;33524;55.434;38.520;2023-07-24T08:17:40;4.25;;;1.50;;
47760;SDS011;33524;55.434;38.520;2023-07-24T08:20:09;1.55;;;1.20;;
47760;SDS011;33524;55.434;38.520;2023-07-24T08:22:37;2.72;;;1.50;;
47760;SDS011;33524;55.434;38.520;2023-07-24T08:25:06;2.10;;;1.40;;
47760;SDS011;33524;55.434;38.520;2023-07-24T08:27:34;8.80;;;2.17;;
47760;SDS011;33524;55.434;38.520;2023-07-24T08:30:23;2.60;;;1.40;;
47760;SDS011;33524;55.434;38.520;2023-07-24T08:32:51;3.03;;;1.20;;
47760;SDS011;33524;55.434;38.520;2023-07-24T08:35:19;2.65;;;1.30;;
47760;SDS011;33524;55.434;38.520;2023-07-24T08:37:47;1.45;;;1.00;;
47760;SDS011;33524;55.434;38.520;2023-07-24T08:40:15;4.05;;;1.48;;
47760;SDS011;33524;55.434;38.520;2023-07-24T08:42:47;2.92;;;1.27;;
47760;SDS011;33524;55.434;38.520;2023-07-24T08:45:17;2.10;;;1.30;;
47760;SDS011;33524;55.434;38.520;2023-07-24T08:47:45;3.22;;;1.70;;
47760;SDS011;33524;55.434;38.520;2023-07-24T08:50:13;3.58;;;1.50;;
47760;SDS011;33524;55.434;38.520;2023-07-24T08:52:43;2.92;;;1.45;;
47760;SDS011;33524;55.434;38.520;2023-07-24T08:55:12;3.05;;;1.60;;
47760;SDS011;33524;55.434;38.520;2023-07-24T08:57:40;3.47;;;1.87;;
47760;SDS011;33524;55.434;38.520;2023-07-24T09:00:08;6.05;;;2.15;;
47760;SDS011;33524;55.434;38.520;2023-07-24T09:02:37;3.83;;;2.20;;
47760;SDS011;33524;55.434;38.520;2023-07-24T09:05:05;4.35;;;2.78;;
47760;SDS011;33524;55.434;38.520;2023-07-24T09:07:33;4.12;;;2.55;;
47760;SDS011;33524;55.434;38.520;2023-07-24T09:10:01;6.03;;;2.78;;
47760;SDS011;33524;55.434;38.520;2023-07-24T09:12:29;6.78;;;2.45;;
47760;SDS011;33524;55.434;38.520;2023-07-24T09:15:04;4.87;;;2.70;;
47760;SDS011;33524;55.434;38.520;2023-07-24T09:17:34;4.25;;;2.10;;
47760;SDS011;33524;55.434;38.520;2023-07-24T09:20:02;4.45;;;2.28;;
47760;SDS011;33524;55.434;38.520;2023-07-24T09:22:31;6.78;;;2.65;;
47760;SDS011;33524;55.434;38.520;2023-07-24T09:25:00;7.20;;;2.97;;
47760;SDS011;33524;55.434;38.520;2023-07-24T09:27:31;4.28;;;2.72;;
47760;SDS011;33524;55.434;38.520;2023-07-24T09:30:00;4.12;;;2.78;;
47760;SDS011;33524;55.434;38.520;2023-07-24T09:32:31;6.12;;;2.70;;
47760;SDS011;33524;55.434;38.520;2023-07-24T09:35:00;7.43;;;2.50;;
47760;SDS011;33524;55.434;38.520;2023-07-24T09:37:33;6.15;;;2.10;;
47760;SDS011;33524;55.434;38.520;2023-07-24T09:40:09;4.90;;;2.30;;
47760;SDS011;33524;55.434;38.520;2023-07-24T09:42:38;3.87;;;2.45;;
47760;SDS011;33524;55.434;38.520;2023-07-24T09:45:27;3.00;;;2.00;;
47760;SDS011;33524;55.434;38.520;2023-07-24T09:48:02;2.92;;;1.92;;
47760;SDS011;33524;55.434;38.520;2023-07-24T09:50:38;4.12;;;2.65;;
47760;SDS011;33524;55.434;38.520;2023-07-24T09:53:09;4.22;;;2.28;;
47760;SDS011;33524;55.434;38.520;2023-07-24T09:55:47;3.87;;;2.40;;
47760;SDS011;33524;55.434;38.520;2023-07-24T09:58:26;3.75;;;2.05;;
47760;SDS011;33524;55.434;38.520;2023-07-24T10:00:54;4.70;;;2.10;;
47760;SDS011;33524;55.434;38.520;2023-07-24T10:03:24;2.47;;;1.90;;
47760;SDS011;33524;55.434;38.520;2023-07-24T10:05:54;3.97;;;2.00;;
47760;SDS011;33524;55.434;38.520;2023-07-24T10:08:23;4.10;;;2.15;;
47760;SDS011;33524;55.434;38.520;2023-07-24T10:10:52;3.28;;;2.12;;
47760;SDS011;33524;55.434;38.520;2023-07-24T10:13:21;3.05;;;2.03;;
47760;SDS011;33524;55.434;38.520;2023-07-24T10:15:50;3.92;;;2.12;;
47760;SDS011;33524;55.434;38.520;2023-07-24T10:18:25;2.70;;;1.92;;
47760;SDS011;33524;55.434;38.520;2023-07-24T10:21:07;3.30;;;2.00;;
47760;SDS011;33524;55.434;38.520;2023-07-24T10:23:37;4.87;;;1.83;;
47760;SDS011;33524;55.434;38.520;2023-07-24T10:26:10;4.22;;;2.25;;
47760;SDS011;33524;55.434;38.520;2023-07-24T10:28:39;2.42;;;1.87;;
47760;SDS011;33524;55.434;38.520;2023-07-24T10:31:24;3.05;;;1.77;;
47760;SDS011;33524;55.434;38.520;2023-07-24T10:34:05;3.22;;;2.33;;
47760;SDS011;33524;55.434;38.520;2023-07-24T10:36:34;3.33;;;2.22;;
47760;SDS011;33524;55.434;38.520;2023-07-24T10:39:12;3.97;;;1.90;;
47760;SDS011;33524;55.434;38.520;2023-07-24T10:41:42;3.10;;;2.30;;
47760;SDS011;33524;55.434;38.520;2023-07-24T10:44:12;3.28;;;2.00;;
47760;SDS011;33524;55.434;38.520;2023-07-24T10:46:43;2.78;;;2.08;;
47760;SDS011;33524;55.434;38.520;2023-07-24T10:49:11;3.22;;;2.17;;
47760;SDS011;33524;55.434;38.520;2023-07-24T10:51:39;5.37;;;2.03;;
47760;SDS011;33524;55.434;38.520;2023-07-24T10:54:07;2.72;;;1.90;;
47760;SDS011;33524;55.434;38.520;2023-07-24T10:56:36;4.20;;;2.05;;
47760;SDS011;33524;55.434;38.520;2023-07-24T10:59:05;4.37;;;1.95;;
47760;SDS011;33524;55.434;38.520;2023-07-24T11:01:33;2.97;;;1.90;;
47760;SDS011;33524;55.434;38.520;2023-07-24T11:04:02;3.08;;;2.03;;
47760;SDS011;33524;55.434;38.520;2023-07-24T11:06:30;4.05;;;2.03;;
47760;SDS011;33524;55.434;38.520;2023-07-24T11:08:59;3.17;;;1.95;;
47760;SDS011;33524;55.434;38.520;2023-07-24T11:11:28;7.72;;;2.80;;
47760;SDS011;33524;55.434;38.520;2023-07-24T11:13:58;2.60;;;1.83;;
47760;SDS011;33524;55.434;38.520;2023-07-24T11:16:27;3.55;;;1.95;;
47760;SDS011;33524;55.434;38.520;2023-07-24T11:18:59;4.20;;;2.10;;
47760;SDS011;33524;55.434;38.520;2023-07-24T11:21:28;3.75;;;2.25;;
47760;SDS011;33524;55.434;38.520;2023-07-24T11:23:57;6.40;;;2.72;;
47760;SDS011;33524;55.434;38.520;2023-07-24T11:26:26;2.70;;;2.00;;
47760;SDS011;33524;55.434;38.520;2023-07-24T11:28:55;4.95;;;2.40;;
47760;SDS011;33524;55.434;38.520;2023-07-24T11:31:23;3.05;;;1.70;;
47760;SDS011;33524;55.434;38.520;2023-07-24T11:33:52;7.05;;;2.30;;
47760;SDS011;33524;55.434;38.520;2023-07-24T11:36:21;4.20;;;2.10;;
47760;SDS011;33524;55.434;38.520;2023-07-24T11:38:50;2.70;;;2.08;;
47760;SDS011;33524;55.434;38.520;2023-07-24T11:41:19;2.90;;;2.37;;
47760;SDS011;33524;55.434;38.520;2023-07-24T11:43:48;2.28;;;1.70;;
47760;SDS011;33524;55.434;38.520;2023-07-24T11:46:27;3.35;;;2.40;;
47760;SDS011;33524;55.434;38.520;2023-07-24T11:48:58;3.75;;;2.15;;
47760;SDS011;33524;55.434;38.520;2023-07-24T11:51:26;3.35;;;2.03;;
47760;SDS011;33524;55.434;38.520;2023-07-24T11:54:04;3.33;;;2.25;;
47760;SDS011;33524;55.434;38.520;2023-07-24T11:56:36;5.07;;;2.42;;
47760;SDS011;33524;55.434;38.520;2023-07-24T11:59:14;5.10;;;2.97;;
47760;SDS011;33524;55.434;38.520;2023-07-24T12:01:46;3.85;;;2.87;;
47760;SDS011;33524;55.434;38.520;2023-07-24T12:04:16;3.10;;;2.00;;
47760;SDS011;33524;55.434;38.520;2023-07-24T12:06:45;3.85;;;2.50;;
47760;SDS011;33524;55.434;38.520;2023-07-24T12:09:13;3.55;;;2.50;;
47760;SDS011;33524;55.434;38.520;2023-07-24T12:11:42;3.03;;;1.85;;
47760;SDS011;33524;55.434;38.520;2023-07-24T12:14:13;4.62;;;2.05;;
47760;SDS011;33524;55.434;38.520;2023-07-24T12:16:42;2.92;;;2.10;;
47760;SDS011;33524;55.434;38.520;2023-07-24T12:19:11;4.72;;;2.47;;
47760;SDS011;33524;55.434;38.520;2023-07-24T12:21:39;3.30;;;2.12;;
47760;SDS011;33524;55.434;38.520;2023-07-24T12:24:07;4.57;;;2.87;;
47760;SDS011;33524;55.434;38.520;2023-07-24T12:26:35;3.65;;;2.00;;
47760;SDS011;33524;55.434;38.520;2023-07-24T12:29:03;5.00;;;2.60;;
47760;SDS011;33524;55.434;38.520;2023-07-24T12:31:31;3.65;;;2.42;;
47760;SDS011;33524;55.434;38.520;2023-07-24T12:34:00;3.65;;;2.00;;
47760;SDS011;33524;55.434;38.520;2023-07-24T12:36:29;3.40;;;2.50;;
47760;SDS011;33524;55.434;38.520;2023-07-24T12:38:57;3.08;;;2.05;;
47760;SDS011;33524;55.434;38.520;2023-07-24T12:41:25;3.75;;;2.40;;
47760;SDS011;33524;55.434;38.520;2023-07-24T12:43:53;4.32;;;2.00;;
47760;SDS011;33524;55.434;38.520;2023-07-24T12:46:21;3.00;;;1.70;;
47760;SDS011;33524;55.434;38.520;2023-07-24T12:48:49;4.43;;;2.92;;
47760;SDS011;33524;55.434;38.520;2023-07-24T12:51:17;4.20;;;2.20;;
47760;SDS011;33524;55.434;38.520;2023-07-24T12:53:46;3.35;;;2.60;;
47760;SDS011;33524;55.434;38.520;2023-07-24T12:56:21;2.45;;;1.75;;
47760;SDS011;33524;55.434;38.520;2023-07-24T12:58:49;4.85;;;2.58;;
47760;SDS011;33524;55.434;38.520;2023-07-24T13:01:17;5.30;;;2.58;;
47760;SDS011;33524;55.434;38.520;2023-07-24T13:03:46;2.87;;;2.15;;
47760;SDS011;33524;55.434;38.520;2023-07-24T13:06:14;6.20;;;3.17;;
47760;SDS011;33524;55.434;38.520;2023-07-24T13:08:43;4.22;;;2.30;;
47760;SDS011;33524;55.434;38.520;2023-07-24T13:11:10;3.53;;;2.30;;
47760;SDS011;33524;55.434;38.520;2023-07-24T13:13:39;4.15;;;2.40;;
47760;SDS011;33524;55.434;38.520;2023-07-24T13:16:07;5.97;;;2.00;;
47760;SDS011;33524;55.434;38.520;2023-07-24T13:18:35;4.20;;;2.12;;
47760;SDS011;33524;55.434;38.520;2023-07-24T13:21:04;4.05;;;2.60;;
47760;SDS011;33524;55.434;38.520;2023-07-24T13:23:33;3.33;;;2.20;;
47760;SDS011;33524;55.434;38.520;2023-07-24T13:26:02;3.45;;;2.50;;
47760;SDS011;33524;55.434;38.520;2023-07-24T13:28:30;2.70;;;2.08;;
47760;SDS011;33524;55.434;38.520;2023-07-24T13:30:58;2.33;;;1.85;;
47760;SDS011;33524;55.434;38.520;2023-07-24T13:33:26;4.35;;;2.50;;
47760;SDS011;33524;55.434;38.520;2023-07-24T13:35:55;3.12;;;1.73;;
47760;SDS011;33524;55.434;38.520;2023-07-24T13:38:23;4.12;;;2.60;;
47760;SDS011;33524;55.434;38.520;2023-07-24T13:40:51;3.45;;;2.28;;
47760;SDS011;33524;55.434;38.520;2023-07-24T13:43:20;2.87;;;2.20;;
47760;SDS011;33524;55.434;38.520;2023-07-24T13:45:48;2.50;;;2.10;;
47760;SDS011;33524;55.434;38.520;2023-07-24T13:48:16;3.25;;;2.20;;
47760;SDS011;33524;55.434;38.520;2023-07-24T13:50:45;3.28;;;2.25;;
47760;SDS011;33524;55.434;38.520;2023-07-24T13:53:13;4.75;;;3.05;;
47760;SDS011;33524;55.434;38.520;2023-07-24T13:55:41;5.97;;;3.00;;
47760;SDS011;33524;55.434;38.520;2023-07-24T13:58:10;4.00;;;3.08;;
47760;SDS011;33524;55.434;38.520;2023-07-24T14:00:38;4.80;;;2.92;;
47760;SDS011;33524;55.434;38.520;2023-07-24T14:03:07;4.07;;;3.03;;
47760;SDS011;33524;55.434;38.520;2023-07-24T14:05:35;10.48;;;4.65;;
47760;SDS011;33524;55.434;38.520;2023-07-24T14:08:10;4.72;;;3.87;;
47760;SDS011;33524;55.434;38.520;2023-07-24T14:10:39;6.30;;;4.43;;
47760;SDS011;33524;55.434;38.520;2023-07-24T14:13:07;10.65;;;7.18;;
47760;SDS011;33524;55.434;38.520;2023-07-24T14:15:35;11.07;;;8.40;;
47760;SDS011;33524;55.434;38.520;2023-07-24T14:18:03;13.95;;;8.00;;
47760;SDS011;33524;55.434;38.520;2023-07-24T14:20:32;7.90;;;5.70;;
47760;SDS011;33524;55.434;38.520;2023-07-24T14:23:00;10.50;;;5.60;;
47760;SDS011;33524;55.434;38.520;2023-07-24T14:25:28;5.03;;;4.07;;
47760;SDS011;33524;55.434;38.520;2023-07-24T14:27:56;6.05;;;4.60;;
47760;SDS011;33524;55.434;38.520;2023-07-24T14:30:24;5.87;;;4.95;;
47760;SDS011;33524;55.434;38.520;2023-07-24T14:32:52;8.25;;;5.78;;
47760;SDS011;33524;55.434;38.520;2023-07-24T14:35:21;6.65;;;5.20;;
47760;SDS011;33524;55.434;38.520;2023-07-24T14:37:49;7.12;;;4.90;;
47760;SDS011;33524;55.434;38.520;2023-07-24T14:40:17;8.07;;;5.10;;
47760;SDS011;33524;55.434;38.520;2023-07-24T14:42:45;9.68;;;6.57;;
47760;SDS011;33524;55.434;38.520;2023-07-24T14:45:13;9.55;;;5.85;;
47760;SDS011;33524;55.434;38.520;2023-07-24T14:47:41;7.15;;;4.55;;
47760;SDS011;33524;55.434;38.520;2023-07-24T14:50:10;7.43;;;5.45;;